createdAt,value
2023-03-16T00:01:27.952Z,2.40
2023-03-16T00:02:59.771Z,2.50
2023-03-16T00:04:31.651Z,2.30
2023-03-16T00:06:04.977Z,2.10
2023-03-16T00:07:36.930Z,2.08
2023-03-16T00:09:09.784Z,2.20
2023-03-16T00:10:46.651Z,2.10
2023-03-16T00:12:18.863Z,2.38
2023-03-16T00:13:50.524Z,2.05
2023-03-16T00:15:22.238Z,2.30
2023-03-16T00:16:53.875Z,2.70
2023-03-16T00:18:29.355Z,2.30
2023-03-16T00:20:06.566Z,2.70
2023-03-16T00:21:39.800Z,2.47
2023-03-16T00:23:11.991Z,2.22
2023-03-16T00:24:43.627Z,2.33
2023-03-16T00:26:15.321Z,2.20
2023-03-16T00:27:47.360Z,2.50
2023-03-16T00:29:19.179Z,2.28
2023-03-16T00:30:50.907Z,2.22
2023-03-16T00:32:23.562Z,2.30
2023-03-16T00:33:55.174Z,2.58
2023-03-16T00:35:26.829Z,3.00
2023-03-16T00:36:59.855Z,2.67
2023-03-16T00:38:32.485Z,2.45
2023-03-16T00:40:07.764Z,2.53
2023-03-16T00:41:39.505Z,2.80
2023-03-16T00:43:11.151Z,2.60
2023-03-16T00:44:42.867Z,2.58
2023-03-16T00:46:16.330Z,2.47
2023-03-16T00:47:48.043Z,2.58
2023-03-16T00:49:19.658Z,2.90
2023-03-16T00:50:54.353Z,2.50
2023-03-16T00:52:27.825Z,2.40
2023-03-16T00:53:59.811Z,2.40
2023-03-16T00:55:32.184Z,2.38
2023-03-16T00:57:04.075Z,2.40
2023-03-16T00:58:36.577Z,2.60
2023-03-16T01:00:13.104Z,2.90
2023-03-16T01:01:46.771Z,2.60
2023-03-16T01:03:18.532Z,2.65
2023-03-16T01:04:50.448Z,2.72
2023-03-16T01:06:22.204Z,2.47
2023-03-16T01:07:55.207Z,2.50
2023-03-16T01:09:26.855Z,2.70
2023-03-16T01:11:03.555Z,2.72
2023-03-16T01:12:35.476Z,2.60
2023-03-16T01:14:07.141Z,3.05
2023-03-16T01:15:39.281Z,2.60
2023-03-16T01:17:11.126Z,2.50
2023-03-16T01:18:42.773Z,2.85
2023-03-16T01:20:16.721Z,2.60
2023-03-16T01:21:48.351Z,2.60
2023-03-16T01:23:21.419Z,2.88
2023-03-16T01:24:53.059Z,2.33
2023-03-16T01:26:25.217Z,2.58
2023-03-16T01:27:56.903Z,2.72
2023-03-16T01:29:28.677Z,2.45
2023-03-16T01:31:03.045Z,2.40
2023-03-16T01:32:34.790Z,2.83
2023-03-16T01:34:06.519Z,2.58
2023-03-16T01:35:38.176Z,2.72
2023-03-16T01:37:09.807Z,2.67
2023-03-16T01:38:42.864Z,2.35
2023-03-16T01:40:14.666Z,2.70
2023-03-16T01:41:46.386Z,2.67
2023-03-16T01:43:18.320Z,2.55
2023-03-16T01:44:51.310Z,2.70
2023-03-16T01:46:24.601Z,2.70
2023-03-16T01:47:58.720Z,2.10
2023-03-16T01:49:32.763Z,2.75
2023-03-16T01:51:06.261Z,2.70
2023-03-16T01:52:38.137Z,2.53
2023-03-16T01:54:14.634Z,2.50
2023-03-16T01:55:46.326Z,2.85
2023-03-16T01:57:18.912Z,2.60
2023-03-16T01:58:51.170Z,2.60
2023-03-16T02:00:31.433Z,3.00
2023-03-16T02:02:03.218Z,2.80
2023-03-16T02:03:35.130Z,2.92
2023-03-16T02:05:09.707Z,3.08
2023-03-16T02:06:41.347Z,2.65
2023-03-16T02:08:13.021Z,2.83
2023-03-16T02:09:47.155Z,3.08
2023-03-16T02:11:18.806Z,3.05
2023-03-16T02:12:50.715Z,2.90
2023-03-16T02:14:22.518Z,2.83
2023-03-16T02:15:54.358Z,3.10
2023-03-16T02:17:27.814Z,2.90
2023-03-16T02:18:59.423Z,3.15
2023-03-16T02:20:35.350Z,3.05
2023-03-16T02:22:07.256Z,2.90
2023-03-16T02:23:38.887Z,2.80
2023-03-16T02:25:12.115Z,2.78
2023-03-16T02:26:45.760Z,2.80
2023-03-16T02:28:19.978Z,3.40
2023-03-16T02:29:56.203Z,2.88
2023-03-16T02:31:27.857Z,3.20
2023-03-16T02:32:59.561Z,3.00
2023-03-16T02:34:31.230Z,3.30
2023-03-16T02:36:03.617Z,2.97
2023-03-16T02:37:35.283Z,2.97
2023-03-16T02:39:06.938Z,2.90
2023-03-16T02:40:38.847Z,3.03
2023-03-16T02:42:12.036Z,3.30
2023-03-16T02:43:45.764Z,2.80
2023-03-16T02:45:18.713Z,3.08
2023-03-16T02:46:50.361Z,2.88
2023-03-16T02:48:23.528Z,3.30
2023-03-16T02:49:55.559Z,3.22
2023-03-16T02:51:27.168Z,3.10
2023-03-16T02:52:58.730Z,2.90
2023-03-16T02:54:30.492Z,3.28
2023-03-16T02:56:04.727Z,3.00
2023-03-16T02:57:36.434Z,2.92
2023-03-16T02:59:08.034Z,3.15
2023-03-16T03:00:41.002Z,3.17
2023-03-16T03:02:12.610Z,3.13
2023-03-16T03:03:44.204Z,3.08
2023-03-16T03:05:15.884Z,2.90
2023-03-16T03:06:47.434Z,3.20
2023-03-16T03:08:22.761Z,2.88
2023-03-16T03:09:54.374Z,2.67
2023-03-16T03:11:25.992Z,2.95
2023-03-16T03:12:58.022Z,3.13
2023-03-16T03:14:29.695Z,3.30
2023-03-16T03:16:02.894Z,2.90
2023-03-16T03:17:34.778Z,3.30
2023-03-16T03:19:06.338Z,3.30
2023-03-16T03:20:38.127Z,3.33
2023-03-16T03:22:11.080Z,3.50
2023-03-16T03:23:46.444Z,3.45
2023-03-16T03:25:18.635Z,3.50
2023-03-16T03:26:50.350Z,3.30
2023-03-16T03:28:22.226Z,3.20
2023-03-16T03:29:53.848Z,3.17
2023-03-16T03:31:26.813Z,3.40
2023-03-16T03:32:58.478Z,3.42
2023-03-16T03:34:30.212Z,3.20
2023-03-16T03:36:02.317Z,3.40
2023-03-16T03:37:34.213Z,3.72
2023-03-16T03:39:05.813Z,3.17
2023-03-16T03:40:37.632Z,3.08
2023-03-16T03:42:09.583Z,3.50
2023-03-16T03:43:41.483Z,2.97
2023-03-16T03:45:13.279Z,3.20
2023-03-16T03:46:46.544Z,3.30
2023-03-16T03:48:18.295Z,3.55
2023-03-16T03:49:49.950Z,3.30
2023-03-16T03:51:21.780Z,3.70
2023-03-16T03:52:53.597Z,3.65
2023-03-16T03:54:25.341Z,4.00
2023-03-16T03:55:56.999Z,3.50
2023-03-16T03:57:28.737Z,3.55
2023-03-16T03:59:00.417Z,3.83
2023-03-16T04:00:32.049Z,3.42
2023-03-16T04:02:05.391Z,3.70
2023-03-16T04:03:37.102Z,3.55
2023-03-16T04:05:09.392Z,3.78
2023-03-16T04:06:41.671Z,3.85
2023-03-16T04:08:13.425Z,4.30
2023-03-16T04:09:45.057Z,3.33
2023-03-16T04:11:16.757Z,3.67
2023-03-16T04:12:48.311Z,3.83
2023-03-16T04:14:19.872Z,4.10
2023-03-16T04:15:56.490Z,3.97
2023-03-16T04:17:29.554Z,3.70
2023-03-16T04:19:01.693Z,3.90
2023-03-16T04:20:33.389Z,3.78
2023-03-16T04:22:05.200Z,3.80
2023-03-16T04:23:36.804Z,3.78
2023-03-16T04:25:11.020Z,3.58
2023-03-16T04:26:45.121Z,3.97
2023-03-16T04:28:17.855Z,3.72
2023-03-16T04:29:49.506Z,4.65
2023-03-16T04:31:21.366Z,6.00
2023-03-16T04:32:54.433Z,6.47
2023-03-16T04:34:26.110Z,5.00
2023-03-16T04:35:57.807Z,3.92
2023-03-16T04:37:29.552Z,3.60
2023-03-16T04:39:02.143Z,3.65
2023-03-16T04:40:33.770Z,3.92
2023-03-16T04:42:06.179Z,3.80
2023-03-16T04:43:37.818Z,3.55
2023-03-16T04:45:10.385Z,3.40
2023-03-16T04:46:41.974Z,4.05
2023-03-16T04:48:14.966Z,3.90
2023-03-16T04:49:46.674Z,3.60
2023-03-16T04:51:18.285Z,3.95
2023-03-16T04:52:49.888Z,3.45
2023-03-16T04:54:21.611Z,3.70
2023-03-16T04:55:53.237Z,3.40
2023-03-16T04:57:25.293Z,3.80
2023-03-16T04:58:57.163Z,3.60
2023-03-16T05:00:29.109Z,3.20
2023-03-16T05:02:01.025Z,3.70
2023-03-16T05:03:34.782Z,3.40
2023-03-16T05:05:06.952Z,4.00
2023-03-16T05:06:38.563Z,3.55
2023-03-16T05:08:10.825Z,4.50
2023-03-16T05:09:42.563Z,5.10
2023-03-16T05:11:14.282Z,4.30
2023-03-16T05:12:46.404Z,3.90
2023-03-16T05:14:18.049Z,4.03
2023-03-16T05:15:49.727Z,3.88
2023-03-16T05:17:22.230Z,3.35
2023-03-16T05:18:57.953Z,3.65
2023-03-16T05:20:30.304Z,4.00
2023-03-16T05:22:02.114Z,3.80
2023-03-16T05:23:33.923Z,4.00
2023-03-16T05:25:06.559Z,3.88
2023-03-16T05:26:38.151Z,3.70
2023-03-16T05:28:09.740Z,3.90
2023-03-16T05:29:45.990Z,4.10
2023-03-16T05:31:17.641Z,3.60
2023-03-16T05:32:49.267Z,3.47
2023-03-16T05:34:22.205Z,3.80
2023-03-16T05:35:53.888Z,4.18
2023-03-16T05:38:58.285Z,3.60
2023-03-16T05:40:30.176Z,4.00
2023-03-16T05:42:01.958Z,3.78
2023-03-16T05:43:34.390Z,3.70
2023-03-16T05:45:07.081Z,3.65
2023-03-16T05:46:38.845Z,4.20
2023-03-16T05:48:10.508Z,3.92
2023-03-16T05:49:43.542Z,3.50
2023-03-16T05:51:15.144Z,3.60
2023-03-16T05:52:46.890Z,3.90
2023-03-16T05:54:18.481Z,3.72
2023-03-16T05:55:53.540Z,3.58
2023-03-16T05:57:27.069Z,3.47
2023-03-16T05:59:00.526Z,3.70
2023-03-16T06:00:32.166Z,5.90
2023-03-16T06:02:03.999Z,6.65
2023-03-16T06:03:35.619Z,5.43
2023-03-16T06:05:09.294Z,4.85
2023-03-16T06:06:40.956Z,3.92
2023-03-16T06:08:12.740Z,3.80
2023-03-16T06:09:44.387Z,3.78
2023-03-16T06:11:16.223Z,3.45
2023-03-16T06:12:47.910Z,3.67
2023-03-16T06:14:19.563Z,3.80
2023-03-16T06:15:51.288Z,3.72
2023-03-16T06:17:22.902Z,3.83
2023-03-16T06:18:59.144Z,5.75
2023-03-16T06:20:32.697Z,9.95
2023-03-16T06:22:04.439Z,9.80
2023-03-16T06:23:36.053Z,5.20
2023-03-16T06:25:08.454Z,4.13
2023-03-16T06:26:40.105Z,4.25
2023-03-16T06:28:11.798Z,4.18
2023-03-16T06:29:43.435Z,3.88
2023-03-16T06:31:18.522Z,3.75
2023-03-16T06:32:50.172Z,3.63
2023-03-16T06:34:22.596Z,3.40
2023-03-16T06:35:55.675Z,3.67
2023-03-16T06:37:27.305Z,3.95
2023-03-16T06:38:58.876Z,3.85
2023-03-16T06:40:32.498Z,3.90
2023-03-16T06:42:04.925Z,4.25
2023-03-16T06:43:36.788Z,4.22
2023-03-16T06:45:10.118Z,4.60
2023-03-16T06:46:41.791Z,4.90
2023-03-16T06:48:13.546Z,4.90
2023-03-16T06:49:46.913Z,5.45
2023-03-16T06:51:19.958Z,5.00
2023-03-16T06:52:51.692Z,4.43
2023-03-16T06:54:23.269Z,5.15
2023-03-16T06:55:54.891Z,5.32
2023-03-16T06:57:26.599Z,5.28
2023-03-16T06:58:58.186Z,5.00
2023-03-16T07:00:30.861Z,4.70
2023-03-16T07:02:02.548Z,5.10
2023-03-16T07:03:34.319Z,10.95
2023-03-16T07:05:06.801Z,7.30
2023-03-16T07:06:39.860Z,4.82
2023-03-16T07:08:12.194Z,4.43
2023-03-16T07:09:43.939Z,5.47
2023-03-16T07:11:15.647Z,4.82
2023-03-16T07:12:47.281Z,5.30
2023-03-16T07:14:19.957Z,4.75
2023-03-16T07:15:57.658Z,4.45
2023-03-16T07:17:29.262Z,4.40
2023-03-16T07:19:01.755Z,4.63
2023-03-16T07:20:34.285Z,4.40
2023-03-16T07:22:07.304Z,4.53
2023-03-16T07:23:38.895Z,3.85
2023-03-16T07:25:11.553Z,3.80
2023-03-16T07:26:43.342Z,3.40
2023-03-16T07:28:15.029Z,3.50
2023-03-16T07:29:46.638Z,3.97
2023-03-16T07:31:18.344Z,3.40
2023-03-16T07:32:50.083Z,3.67
2023-03-16T07:34:21.826Z,3.40
2023-03-16T07:35:53.622Z,3.30
2023-03-16T07:37:26.813Z,3.40
2023-03-16T07:38:58.536Z,3.33
2023-03-16T07:40:30.649Z,3.35
2023-03-16T07:42:02.718Z,3.30
2023-03-16T07:43:34.518Z,3.30
2023-03-16T07:45:07.491Z,3.60
2023-03-16T07:46:39.102Z,3.60
2023-03-16T07:48:10.706Z,3.80
2023-03-16T07:49:43.852Z,3.50
2023-03-16T07:51:15.725Z,3.38
2023-03-16T07:52:48.730Z,3.85
2023-03-16T07:54:20.413Z,2.97
2023-03-16T07:55:52.014Z,2.90
2023-03-16T07:57:23.684Z,3.30
2023-03-16T07:58:55.333Z,3.38
2023-03-16T08:00:27.516Z,3.22
2023-03-16T08:01:59.254Z,3.35
2023-03-16T08:03:32.068Z,3.15
2023-03-16T08:05:04.171Z,3.08
2023-03-16T08:06:35.783Z,3.15
2023-03-16T08:08:09.724Z,3.15
2023-03-16T08:09:41.491Z,3.38
2023-03-16T08:11:13.237Z,3.05
2023-03-16T08:12:45.023Z,3.30
2023-03-16T08:14:16.729Z,2.90
2023-03-16T08:15:48.610Z,3.00
2023-03-16T08:17:26.222Z,2.80
2023-03-16T08:18:57.886Z,2.90
2023-03-16T08:20:29.796Z,3.47
2023-03-16T08:22:02.280Z,3.13
2023-03-16T08:23:36.177Z,3.33
2023-03-16T08:25:12.935Z,3.17
2023-03-16T08:26:44.626Z,3.33
2023-03-16T08:28:17.039Z,3.25
2023-03-16T08:29:51.963Z,3.00
2023-03-16T08:31:25.435Z,3.42
2023-03-16T08:32:57.485Z,3.25
2023-03-16T08:34:33.672Z,3.70
2023-03-16T08:36:06.149Z,3.00
2023-03-16T08:37:40.025Z,2.33
2023-03-16T08:39:13.236Z,2.40
2023-03-16T08:40:48.932Z,2.30
2023-03-16T08:42:21.139Z,2.22
2023-03-16T08:43:52.870Z,1.92
2023-03-16T08:45:24.470Z,2.20
2023-03-16T08:46:56.177Z,2.60
2023-03-16T08:48:28.760Z,2.30
2023-03-16T08:50:01.147Z,2.33
2023-03-16T08:51:32.825Z,2.30
2023-03-16T08:53:06.032Z,2.17
2023-03-16T08:54:47.149Z,2.40
2023-03-16T08:56:24.566Z,2.25
2023-03-16T08:57:56.239Z,2.30
2023-03-16T08:59:30.855Z,2.30
2023-03-16T09:01:04.012Z,2.38
2023-03-16T09:02:38.503Z,2.00
2023-03-16T09:04:11.786Z,2.47
2023-03-16T09:05:43.475Z,2.20
2023-03-16T09:07:15.119Z,2.50
2023-03-16T09:08:47.821Z,3.20
2023-03-16T09:10:23.022Z,4.40
2023-03-16T09:11:54.626Z,8.18
2023-03-16T09:13:28.389Z,3.90
2023-03-16T09:15:00.528Z,2.60
2023-03-16T09:16:32.153Z,2.67
2023-03-16T09:18:04.124Z,2.78
2023-03-16T09:19:52.856Z,2.58
2023-03-16T09:21:26.605Z,2.42
2023-03-16T09:22:58.845Z,3.35
2023-03-16T09:24:30.542Z,11.15
2023-03-16T09:26:14.098Z,11.70
2023-03-16T09:27:45.749Z,3.00
2023-03-16T09:29:22.761Z,2.47
2023-03-16T09:30:57.303Z,3.95
2023-03-16T09:32:30.240Z,4.13
2023-03-16T09:37:35.314Z,2.70
2023-03-16T09:39:11.917Z,3.70
2023-03-16T09:40:44.559Z,15.65
2023-03-16T09:42:20.779Z,3.53
2023-03-16T09:43:58.336Z,2.42
2023-03-16T09:45:34.563Z,4.30
2023-03-16T09:47:06.414Z,2.20
2023-03-16T09:48:38.844Z,2.03
2023-03-16T09:50:16.520Z,2.13
2023-03-16T09:51:49.777Z,2.30
2023-03-16T09:53:24.948Z,2.20
2023-03-16T09:54:58.091Z,2.20
2023-03-16T09:56:35.542Z,2.70
2023-03-16T09:58:16.520Z,2.20
2023-03-16T09:59:48.345Z,2.10
2023-03-16T10:01:24.316Z,1.88
2023-03-16T10:03:13.437Z,2.08
2023-03-16T10:04:57.463Z,2.10
2023-03-16T10:06:29.534Z,2.45
2023-03-16T10:08:07.960Z,2.75
2023-03-16T10:09:43.581Z,2.55
2023-03-16T10:11:27.244Z,2.50
2023-03-16T10:13:00.108Z,2.63
2023-03-16T10:14:51.087Z,2.50
2023-03-16T10:16:24.730Z,2.53
2023-03-16T10:18:00.223Z,2.50
2023-03-16T10:19:40.168Z,2.53
2023-03-16T10:21:21.206Z,2.65
2023-03-16T10:22:55.438Z,2.53
2023-03-16T10:24:38.868Z,2.80
2023-03-16T10:26:13.686Z,2.60
2023-03-16T10:27:50.745Z,2.60
2023-03-16T10:29:37.875Z,2.58
2023-03-16T10:31:14.124Z,2.33
2023-03-16T10:32:45.956Z,2.45
2023-03-16T10:34:17.674Z,2.35
2023-03-16T10:35:51.383Z,2.17
2023-03-16T10:37:26.452Z,2.25
2023-03-16T10:39:00.124Z,2.50
2023-03-16T10:40:32.209Z,2.13
2023-03-16T10:42:10.769Z,2.08
2023-03-16T10:43:43.080Z,2.15
2023-03-16T10:45:33.551Z,1.83
2023-03-16T10:47:09.848Z,2.13
2023-03-16T10:48:42.369Z,2.00
2023-03-16T10:50:26.254Z,1.60
2023-03-16T10:51:59.656Z,1.75
2023-03-16T10:53:32.834Z,1.77
2023-03-16T10:55:08.755Z,1.90
2023-03-16T10:56:44.886Z,1.80
2023-03-16T10:58:26.959Z,1.90
2023-03-16T11:00:00.831Z,2.13
2023-03-16T11:01:33.789Z,1.90
2023-03-16T11:03:23.041Z,2.00
2023-03-16T11:04:56.168Z,1.80
2023-03-16T11:06:30.843Z,1.90
2023-03-16T11:08:11.881Z,1.90
2023-03-16T11:09:44.857Z,1.90
2023-03-16T11:11:17.931Z,2.00
2023-03-16T11:12:50.879Z,1.90
2023-03-16T11:14:35.601Z,2.10
2023-03-16T11:16:17.141Z,1.77
2023-03-16T11:17:53.079Z,1.60
2023-03-16T11:19:27.365Z,1.85
2023-03-16T11:21:00.691Z,1.70
2023-03-16T11:22:32.832Z,1.85
2023-03-16T11:24:04.886Z,1.63
2023-03-16T11:25:38.876Z,1.85
2023-03-16T11:27:15.520Z,1.90
2023-03-16T11:28:49.029Z,1.85
2023-03-16T11:30:24.193Z,2.00
2023-03-16T11:31:57.765Z,1.90
2023-03-16T11:33:31.168Z,1.60
2023-03-16T11:35:16.555Z,1.80
2023-03-16T11:36:50.774Z,2.42
2023-03-16T11:38:27.011Z,2.00
2023-03-16T11:40:05.407Z,1.80
2023-03-16T11:41:43.461Z,1.85
2023-03-16T11:43:27.524Z,1.83
2023-03-16T11:45:03.482Z,2.10
2023-03-16T11:46:36.861Z,1.70
2023-03-16T11:48:29.352Z,1.80
2023-03-16T11:50:01.670Z,1.90
2023-03-16T11:51:42.212Z,2.00
2023-03-16T11:53:18.590Z,1.63
2023-03-16T11:54:55.421Z,1.60
2023-03-16T11:56:31.197Z,1.42
2023-03-16T11:58:15.637Z,1.75
2023-03-16T12:00:01.443Z,1.95
2023-03-16T12:01:47.735Z,1.75
2023-03-16T12:03:55.162Z,1.80
2023-03-16T12:05:43.018Z,2.58
2023-03-16T12:07:26.471Z,1.70
2023-03-16T12:09:17.764Z,1.70
2023-03-16T12:10:50.779Z,1.80
2023-03-16T12:12:30.095Z,1.77
2023-03-16T12:14:11.395Z,1.60
2023-03-16T12:15:45.113Z,1.90
2023-03-16T12:17:18.042Z,1.92
2023-03-16T12:18:51.635Z,2.20
2023-03-16T12:20:24.772Z,1.80
2023-03-16T12:22:02.292Z,1.98
2023-03-16T12:23:36.827Z,1.80
2023-03-16T12:25:14.947Z,1.70
2023-03-16T12:26:49.526Z,1.77
2023-03-16T12:28:23.890Z,1.60
2023-03-16T12:29:59.926Z,1.98
2023-03-16T12:31:37.518Z,2.42
2023-03-16T12:33:12.857Z,2.90
2023-03-16T12:34:46.615Z,1.63
2023-03-16T12:36:52.282Z,1.67
2023-03-16T12:38:38.475Z,1.80
2023-03-16T12:40:18.635Z,1.92
2023-03-16T12:41:57.282Z,2.00
2023-03-16T12:43:36.159Z,1.70
2023-03-16T12:45:10.671Z,1.80
2023-03-16T12:46:48.043Z,1.60
2023-03-16T12:48:23.000Z,1.80
2023-03-16T12:49:57.028Z,1.60
2023-03-16T12:51:35.481Z,1.70
2023-03-16T12:53:07.154Z,1.45
2023-03-16T12:54:52.009Z,1.80
2023-03-16T12:56:28.339Z,1.75
2023-03-16T12:58:03.228Z,1.70
2023-03-16T12:59:39.071Z,1.60
2023-03-16T13:01:11.465Z,1.52
2023-03-16T13:02:44.511Z,1.50
2023-03-16T13:04:16.993Z,1.50
2023-03-16T13:05:51.163Z,1.50
2023-03-16T13:07:25.859Z,1.50
2023-03-16T13:09:11.757Z,1.50
2023-03-16T13:10:59.117Z,1.50
2023-03-16T13:12:32.920Z,1.60
2023-03-16T13:14:12.674Z,1.50
2023-03-16T13:15:47.560Z,1.35
2023-03-16T13:17:24.465Z,1.20
2023-03-16T13:18:56.585Z,1.50
2023-03-16T13:20:31.266Z,1.25
2023-03-16T13:22:06.497Z,1.38
2023-03-16T13:23:58.419Z,1.23
2023-03-16T13:25:39.133Z,1.20
2023-03-16T13:27:24.825Z,1.30
2023-03-16T13:28:57.125Z,1.20
2023-03-16T13:30:30.781Z,1.23
2023-03-16T13:32:04.810Z,1.40
2023-03-16T13:33:36.939Z,1.30
2023-03-16T13:35:12.126Z,1.30
2023-03-16T13:36:45.148Z,1.40
2023-03-16T13:38:17.569Z,1.40
2023-03-16T13:39:53.950Z,1.20
2023-03-16T13:41:25.789Z,1.30
2023-03-16T13:42:58.904Z,1.10
2023-03-16T13:44:31.359Z,0.90
2023-03-16T13:46:13.746Z,1.20
2023-03-16T13:47:46.038Z,1.30
2023-03-16T13:49:18.451Z,1.20
2023-03-16T13:50:53.453Z,1.13
2023-03-16T13:52:26.796Z,1.20
2023-03-16T13:53:58.815Z,1.20
2023-03-16T13:55:31.704Z,1.20
2023-03-16T13:57:03.704Z,1.00
2023-03-16T13:58:37.838Z,1.23
2023-03-16T14:00:18.787Z,1.10
2023-03-16T14:01:57.922Z,1.40
2023-03-16T14:03:32.813Z,1.05
2023-03-16T14:05:10.224Z,1.10
2023-03-16T14:06:51.871Z,1.10
2023-03-16T14:08:23.615Z,0.88
2023-03-16T14:09:59.060Z,1.10
2023-03-16T14:11:30.742Z,0.95
2023-03-16T14:13:10.182Z,1.10
2023-03-16T14:14:46.212Z,1.10
2023-03-16T14:16:18.552Z,0.90
2023-03-16T14:17:51.052Z,1.00
2023-03-16T14:19:24.536Z,0.98
2023-03-16T14:20:56.239Z,1.00
2023-03-16T14:22:29.493Z,0.95
2023-03-16T14:24:02.209Z,0.95
2023-03-16T14:25:37.569Z,0.90
2023-03-16T14:27:14.479Z,1.00
2023-03-16T14:28:54.265Z,1.08
2023-03-16T14:30:28.379Z,1.00
2023-03-16T14:32:02.340Z,1.10
2023-03-16T14:33:37.921Z,0.95
2023-03-16T14:35:13.942Z,1.00
2023-03-16T14:36:48.134Z,1.00
2023-03-16T14:38:22.176Z,1.02
2023-03-16T14:39:58.244Z,1.10
2023-03-16T14:41:33.323Z,0.90
2023-03-16T14:43:04.966Z,0.90
2023-03-16T14:44:37.406Z,1.00
2023-03-16T14:46:19.711Z,0.90
2023-03-16T14:47:52.486Z,0.93
2023-03-16T14:49:28.252Z,1.00
2023-03-16T14:51:01.041Z,0.95
2023-03-16T14:52:32.810Z,1.00
2023-03-16T14:54:10.653Z,0.93
2023-03-16T14:55:43.222Z,0.90
2023-03-16T14:57:16.772Z,1.10
2023-03-16T14:58:48.502Z,1.98
2023-03-16T15:00:21.616Z,2.05
2023-03-16T15:01:55.346Z,1.27
2023-03-16T15:03:33.010Z,1.20
2023-03-16T15:05:05.433Z,1.00
2023-03-16T15:06:37.127Z,1.15
2023-03-16T15:08:14.820Z,0.95
2023-03-16T15:09:46.589Z,1.25
2023-03-16T15:11:21.525Z,1.10
2023-03-16T15:13:04.245Z,1.00
2023-03-16T15:14:54.925Z,1.10
2023-03-16T15:16:26.659Z,1.00
2023-03-16T15:18:00.150Z,1.10
2023-03-16T15:19:32.292Z,1.02
2023-03-16T15:21:06.608Z,1.23
2023-03-16T15:22:38.550Z,1.08
2023-03-16T15:24:12.190Z,1.00
2023-03-16T15:25:44.819Z,1.10
2023-03-16T15:27:19.783Z,1.15
2023-03-16T15:28:51.716Z,1.23
2023-03-16T15:30:24.441Z,1.20
2023-03-16T15:31:56.123Z,1.25
2023-03-16T15:33:29.300Z,1.10
2023-03-16T15:35:01.042Z,1.27
2023-03-16T15:36:32.812Z,1.30
2023-03-16T15:38:07.046Z,1.20
2023-03-16T15:39:38.671Z,1.30
2023-03-16T15:41:10.699Z,1.20
2023-03-16T15:42:44.088Z,1.10
2023-03-16T15:44:17.246Z,2.90
2023-03-16T15:45:49.084Z,1.38
2023-03-16T15:47:22.020Z,1.30
2023-03-16T15:48:59.560Z,1.10
2023-03-16T15:50:33.724Z,1.30
2023-03-16T15:52:13.932Z,1.40
2023-03-16T15:53:50.021Z,1.20
2023-03-16T15:55:23.647Z,1.35
2023-03-16T15:56:56.058Z,1.30
2023-03-16T15:58:33.778Z,1.10
2023-03-16T16:00:20.618Z,1.20
2023-03-16T16:01:55.414Z,1.10
2023-03-16T16:03:27.480Z,1.20
2023-03-16T16:05:03.429Z,1.20
2023-03-16T16:06:35.154Z,1.35
2023-03-16T16:08:07.011Z,1.20
2023-03-16T16:09:56.468Z,1.40
2023-03-16T16:11:28.261Z,1.10
2023-03-16T16:13:00.128Z,1.17
2023-03-16T16:14:35.382Z,1.20
2023-03-16T16:16:13.934Z,1.10
2023-03-16T16:18:06.115Z,1.10
2023-03-16T16:19:39.667Z,1.33
2023-03-16T16:21:16.271Z,1.25
2023-03-16T16:22:48.111Z,1.20
2023-03-16T16:24:21.895Z,1.30
2023-03-16T16:25:54.210Z,1.17
2023-03-16T16:27:26.185Z,1.30
2023-03-16T16:29:00.851Z,1.20
2023-03-16T16:30:35.593Z,1.33
2023-03-16T16:32:25.821Z,1.77
2023-03-16T16:33:59.028Z,1.63
2023-03-16T16:35:31.492Z,21.45
2023-03-16T16:37:04.997Z,9.60
2023-03-16T16:38:36.809Z,2.10
2023-03-16T16:40:17.324Z,2.08
2023-03-16T16:41:49.238Z,1.60
2023-03-16T16:43:29.953Z,1.60
2023-03-16T16:45:02.068Z,2.28
2023-03-16T16:46:42.209Z,1.50
2023-03-16T16:48:24.953Z,1.60
2023-03-16T16:49:56.845Z,1.50
2023-03-16T16:51:29.863Z,1.63
2023-03-16T16:53:09.224Z,1.60
2023-03-16T16:54:43.521Z,1.55
2023-03-16T16:56:17.416Z,1.75
2023-03-16T16:57:49.529Z,2.00
2023-03-16T16:59:22.841Z,2.00
2023-03-16T17:00:55.786Z,2.00
2023-03-16T17:02:29.520Z,1.90
2023-03-16T17:04:04.669Z,2.10
2023-03-16T17:05:36.800Z,2.17
2023-03-16T17:07:09.455Z,2.03
2023-03-16T17:08:43.290Z,2.30
2023-03-16T17:10:16.850Z,2.42
2023-03-16T17:11:48.514Z,2.28
2023-03-16T17:13:26.809Z,2.40
2023-03-16T17:14:58.600Z,1.90
2023-03-16T17:16:34.709Z,2.03
2023-03-16T17:18:10.402Z,2.05
2023-03-16T17:19:46.558Z,1.60
2023-03-16T17:21:19.943Z,1.38
2023-03-16T17:22:52.704Z,1.40
2023-03-16T17:24:25.984Z,1.40
2023-03-16T17:25:58.491Z,1.30
2023-03-16T17:27:31.442Z,1.38
2023-03-16T17:29:06.202Z,1.40
2023-03-16T17:30:38.346Z,1.33
2023-03-16T17:32:16.788Z,1.40
2023-03-16T17:33:48.525Z,1.60
2023-03-16T17:35:20.414Z,1.67
2023-03-16T17:36:52.634Z,1.63
2023-03-16T17:38:25.044Z,1.42
2023-03-16T17:39:58.252Z,1.50
2023-03-16T17:41:33.060Z,1.70
2023-03-16T17:43:06.214Z,1.27
2023-03-16T17:44:40.359Z,1.50
2023-03-16T17:46:12.486Z,1.55
2023-03-16T17:47:44.234Z,1.45
2023-03-16T17:49:20.048Z,1.48
2023-03-16T17:50:52.122Z,1.90
2023-03-16T17:52:25.737Z,3.28
2023-03-16T17:53:57.934Z,9.25
2023-03-16T17:55:32.294Z,11.82
2023-03-16T17:57:04.363Z,12.43
2023-03-16T17:58:36.143Z,19.63
2023-03-16T18:00:18.562Z,32.78
2023-03-16T18:01:50.225Z,65.25
2023-03-16T18:03:22.474Z,67.55
2023-03-16T18:04:54.280Z,61.00
2023-03-16T18:06:26.500Z,48.90
2023-03-16T18:07:59.332Z,39.08
2023-03-16T18:09:36.321Z,36.28
2023-03-16T18:11:12.207Z,23.65
2023-03-16T18:12:44.168Z,21.35
2023-03-16T18:14:21.694Z,18.17
2023-03-16T18:15:53.904Z,17.48
2023-03-16T18:17:27.984Z,16.05
2023-03-16T18:19:02.459Z,19.30
2023-03-16T18:20:36.681Z,12.15
2023-03-16T18:22:12.359Z,8.70
2023-03-16T18:23:46.862Z,6.53
2023-03-16T18:25:28.345Z,7.00
2023-03-16T18:27:01.549Z,7.13
2023-03-16T18:28:33.687Z,7.13
2023-03-16T18:30:06.577Z,6.53
2023-03-16T18:31:38.365Z,5.93
2023-03-16T18:33:23.590Z,6.10
2023-03-16T18:34:55.587Z,6.93
2023-03-16T18:36:28.969Z,7.47
2023-03-16T18:38:00.925Z,7.28
2023-03-16T18:39:32.699Z,6.55
2023-03-16T18:41:15.833Z,7.13
2023-03-16T18:42:49.011Z,10.93
2023-03-16T18:44:21.659Z,11.20
2023-03-16T18:45:54.879Z,10.77
2023-03-16T18:47:31.495Z,8.55
2023-03-16T18:49:04.277Z,7.75
2023-03-16T18:50:36.288Z,7.28
2023-03-16T18:52:12.693Z,5.88
2023-03-16T18:53:44.442Z,5.63
2023-03-16T18:55:18.453Z,6.00
2023-03-16T18:56:50.164Z,5.80
2023-03-16T18:58:23.963Z,5.90
2023-03-16T18:59:55.736Z,5.00
2023-03-16T19:01:28.511Z,5.05
2023-03-16T19:03:03.053Z,4.45
2023-03-16T19:04:35.017Z,4.03
2023-03-16T19:06:07.522Z,3.65
2023-03-16T19:07:41.121Z,3.78
2023-03-16T19:09:14.016Z,3.25
2023-03-16T19:10:48.159Z,2.90
2023-03-16T19:12:20.597Z,2.85
2023-03-16T19:13:54.725Z,2.97
2023-03-16T19:15:27.795Z,2.80
2023-03-16T19:17:02.926Z,3.40
2023-03-16T19:18:43.595Z,3.38
2023-03-16T19:20:16.609Z,3.78
2023-03-16T19:21:48.707Z,3.60
2023-03-16T19:23:23.587Z,3.08
2023-03-16T19:24:55.853Z,2.63
2023-03-16T19:26:30.628Z,2.60
2023-03-16T19:28:04.237Z,2.10
2023-03-16T19:29:40.704Z,1.80
2023-03-16T19:31:16.554Z,1.60
2023-03-16T19:32:48.295Z,2.05
2023-03-16T19:34:19.982Z,1.80
2023-03-16T19:35:55.137Z,1.70
2023-03-16T19:37:30.005Z,1.80
2023-03-16T19:39:01.958Z,1.60
2023-03-16T19:40:34.169Z,1.70
2023-03-16T19:42:06.275Z,1.60
2023-03-16T19:43:37.949Z,1.30
2023-03-16T19:45:18.216Z,1.35
2023-03-16T19:46:49.803Z,1.50
2023-03-16T19:48:31.185Z,1.52
2023-03-16T19:50:05.655Z,1.60
2023-03-16T19:51:37.314Z,1.35
2023-03-16T19:53:14.873Z,1.50
2023-03-16T19:54:46.516Z,1.60
2023-03-16T19:56:19.194Z,1.50
2023-03-16T19:57:55.153Z,1.42
2023-03-16T19:59:28.822Z,1.40
2023-03-16T20:01:02.112Z,1.50
2023-03-16T20:02:36.301Z,1.70
2023-03-16T20:04:14.300Z,1.23
2023-03-16T20:05:45.972Z,1.52
2023-03-16T20:07:17.764Z,1.38
2023-03-16T20:08:49.858Z,1.63
2023-03-16T20:10:22.522Z,1.58
2023-03-16T20:11:54.575Z,1.80
2023-03-16T20:13:26.314Z,1.40
2023-03-16T20:14:59.513Z,1.55
2023-03-16T20:16:33.565Z,1.70
2023-03-16T20:18:06.720Z,1.50
2023-03-16T20:19:39.599Z,1.67
2023-03-16T20:21:14.890Z,1.50
2023-03-16T20:22:46.586Z,1.70
2023-03-16T20:24:19.213Z,1.60
2023-03-16T20:25:52.125Z,1.60
2023-03-16T20:27:28.061Z,1.63
2023-03-16T20:29:06.154Z,1.90
2023-03-16T20:30:37.840Z,1.85
2023-03-16T20:32:16.731Z,2.10
2023-03-16T20:33:48.760Z,2.20
2023-03-16T20:35:22.875Z,2.13
2023-03-16T20:36:54.578Z,2.03
2023-03-16T20:38:26.394Z,2.40
2023-03-16T20:39:58.975Z,2.50
2023-03-16T20:41:32.631Z,2.22
2023-03-16T20:43:06.004Z,2.55
2023-03-16T20:44:38.542Z,2.47
2023-03-16T20:46:15.131Z,2.58
2023-03-16T20:47:48.932Z,2.60
2023-03-16T20:49:29.721Z,2.28
2023-03-16T20:51:01.548Z,2.38
2023-03-16T20:52:33.804Z,2.38
2023-03-16T20:54:06.137Z,2.50
2023-03-16T20:55:37.880Z,2.30
2023-03-16T20:57:14.932Z,2.50